Time;durP1;ratioP1;P1;durP2;ratioP2;P2;SDS_P1;SDS_P2;PMS_P1;PMS_P2;Temp;Humidity;BMP_temperature;BMP_pressure;BME280_temperature;BME280_humidity;BME280_pressure;Samples;Min_cycle;Max_cycle;Signal;HPM_P1;HPM_P2
2022/03/14 08:52:15;;;;;;;21.60;15.35;;;10.10;79.50;;;;;;6106120;23;20026;-88
2022/03/14 08:55:06;;;;;;;28.23;17.15;;;10.10;79.20;;;;;;6048011;23;20038;-88
2022/03/14 09:01:54;;;;;;;25.08;15.93;;;10.10;78.30;;;;;;6108866;23;20006;-88
2022/03/14 09:04:23;;;;;;;24.00;15.88;;;10.10;78.00;;;;;;6081054;23;20054;-88
2022/03/14 09:07:11;;;;;;;22.90;15.15;;;10.10;78.60;;;;;;6081274;23;20708;-88
2022/03/14 09:09:41;;;;;;;29.48;16.90;;;10.20;78.60;;;;;;6106852;23;20096;-88
2022/03/14 09:13:00;;;;;;;25.58;15.35;;;10.00;78.30;;;;;;6107524;23;20033;-88
2022/03/14 09:16:00;;;;;;;24.63;15.02;;;10.00;78.20;;;;;;6017237;23;20073;-88
2022/03/14 09:18:42;;;;;;;22.17;13.90;;;10.00;79.30;;;;;;6016634;23;20030;-88
2022/03/14 09:21:27;;;;;;;22.13;13.18;;;9.90;79.20;;;;;;5962038;23;20974;-87
2022/03/14 09:23:58;;;;;;;21.35;13.80;;;10.00;78.40;;;;;;6018058;23;20811;-88
2022/03/14 09:27:12;;;;;;;20.60;13.10;;;9.90;79.10;;;;;;5995640;23;20024;-88
2022/03/14 09:30:02;;;;;;;25.05;13.35;;;10.00;78.50;;;;;;6017569;23;20024;-88
2022/03/14 09:33:03;;;;;;;17.88;11.18;;;10.00;78.50;;;;;;5992503;23;20122;-88
2022/03/14 09:40:28;;;;;;;17.63;11.38;;;10.00;77.90;;;;;;5986404;23;20028;-88
2022/03/14 09:43:31;;;;;;;16.25;10.68;;;10.00;78.10;;;;;;5983428;23;20025;-88
2022/03/14 09:50:14;;;;;;;19.80;11.65;;;10.20;78.30;;;;;;5962887;24;20009;-88
2022/03/14 09:57:14;;;;;;;20.55;10.68;;;10.30;76.70;;;;;;5852455;24;20504;-88
2022/03/14 10:03:35;;;;;;;17.88;10.90;;;10.30;76.30;;;;;;5828279;24;20035;-88
2022/03/14 10:10:04;;;;;;;20.17;11.05;;;10.30;76.00;;;;;;5832504;24;20089;-88
2022/03/14 10:12:52;;;;;;;18.98;10.35;;;10.40;76.80;;;;;;5804183;24;20935;-88
2022/03/14 10:15:22;;;;;;;16.80;11.23;;;10.40;76.30;;;;;;5774444;24;20089;-88
2022/03/14 10:22:11;;;;;;;18.15;10.52;;;10.60;76.60;;;;;;5807133;24;20063;-88
2022/03/14 10:29:59;;;;;;;;;;;;;;;;;;;;;
2022/03/14 10:32:36;;;;;;;21.35;9.05;;;11.00;74.20;;;;;;6023232;23;20529;-88
2022/03/14 10:35:55;;;;;;;18.40;9.15;;;11.20;73.40;;;;;;6061258;23;20016;-88
2022/03/14 10:38:46;;;;;;;17.33;8.52;;;11.20;72.60;;;;;;6038894;23;20032;-89
2022/03/14 10:57:31;;;;;;;15.82;8.40;;;11.10;71.30;;;;;;6029623;23;20063;-88
2022/03/14 10:59:58;;;;;;;19.30;8.68;;;11.10;72.30;;;;;;6006325;23;20031;-89
2022/03/14 11:03:28;;;;;;;15.10;9.23;;;11.10;72.60;;;;;;5924061;24;20030;-89
2022/03/14 11:06:34;;;;;;;20.42;8.73;;;11.20;72.20;;;;;;5916790;24;20030;-89
2022/03/14 11:13:35;;;;;;;18.40;9.48;;;11.00;72.40;;;;;;5851497;24;20262;-89
2022/03/14 11:16:10;;;;;;;18.70;9.18;;;10.90;73.10;;;;;;5853132;24;20023;-88
2022/03/14 11:29:33;;;;;;;20.52;9.90;;;11.20;73.10;;;;;;5903488;24;20029;-89
2022/03/14 11:32:07;;;;;;;20.95;9.05;;;11.40;72.80;;;;;;5967260;24;20108;-87
2022/03/14 11:38:53;;;;;;;18.55;7.95;;;11.60;71.80;;;;;;6080925;23;20011;-89
2022/03/14 11:45:23;;;;;;;14.20;7.43;;;11.80;70.40;;;;;;5937196;23;20630;-88
2022/03/14 11:48:20;;;;;;;18.30;7.93;;;11.90;70.10;;;;;;6017184;23;20040;-89
2022/03/14 11:51:51;;;;;;;14.23;7.35;;;11.90;69.80;;;;;;5962667;24;20021;-89
2022/03/14 11:58:28;;;;;;;15.10;8.40;;;11.90;70.30;;;;;;6019029;23;20024;-89
2022/03/14 12:05:44;;;;;;;14.43;6.85;;;12.00;70.50;;;;;;5997173;23;20013;-89
2022/03/14 12:08:44;;;;;;;16.58;7.60;;;12.10;70.10;;;;;;5915801;23;20028;-89
2022/03/14 12:11:40;;;;;;;16.63;6.38;;;12.20;70.40;;;;;;5941608;23;20009;-89
2022/03/14 12:15:24;;;;;;;15.75;6.72;;;12.00;69.40;;;;;;5968042;23;20054;-88
2022/03/14 12:18:39;;;;;;;14.73;7.10;;;12.10;69.30;;;;;;5910007;24;20013;-88
2022/03/14 12:29:23;;;;;;;15.77;6.65;;;12.80;68.90;;;;;;5934934;24;20409;-90
2022/03/14 12:43:51;;;;;;;16.13;5.63;;;13.40;63.50;;;;;;5832457;24;20039;-90
2022/03/14 12:46:36;;;;;;;12.45;5.45;;;13.30;63.90;;;;;;5774402;24;20031;-89
2022/03/14 13:01:13;;;;;;;;;;;;;;;;;;;;;
2022/03/14 13:07:45;;;;;;;11.68;5.35;;;12.80;65.20;;;;;;5907239;24;20168;-89
2022/03/14 13:13:49;;;;;;;13.23;5.60;;;12.60;65.60;;;;;;6018963;23;19919;-89
2022/03/14 13:16:41;;;;;;;14.32;6.22;;;12.80;65.30;;;;;;5994627;23;20138;-89
2022/03/14 13:20:15;;;;;;;14.15;6.10;;;13.00;65.90;;;;;;6021952;23;20059;-90
2022/03/14 13:22:47;;;;;;;15.05;6.28;;;13.40;65.00;;;;;;6047703;23;20115;-89
2022/03/14 13:25:48;;;;;;;15.07;6.28;;;13.60;64.10;;;;;;6046801;23;20504;-89
2022/03/14 13:32:32;;;;;;;14.55;5.85;;;13.70;64.30;;;;;;5932524;24;20018;-89
2022/03/14 13:35:44;;;;;;;14.00;5.85;;;13.70;62.50;;;;;;5934255;24;20021;-89
2022/03/14 13:55:13;;;;;;;12.30;5.78;;;12.90;65.00;;;;;;6012455;23;20485;-88
2022/03/14 13:58:06;;;;;;;11.32;6.20;;;13.00;65.60;;;;;;5909289;24;20080;-88
2022/03/14 14:04:42;;;;;;;17.48;6.45;;;12.80;65.70;;;;;;5905095;24;20108;-87
2022/03/14 14:08:08;;;;;;;15.05;6.18;;;12.80;64.80;;;;;;5896277;24;20030;-87
2022/03/14 14:10:49;;;;;;;17.48;6.75;;;12.80;64.90;;;;;;5884292;24;20061;-88
2022/03/14 14:24:50;;;;;;;18.38;5.32;;;13.40;64.60;;;;;;5853668;24;20019;-88
2022/03/14 14:27:26;;;;;;;20.05;6.80;;;13.50;61.80;;;;;;5851968;24;20027;-87
2022/03/14 14:31:13;;;;;;;16.45;5.63;;;13.50;63.00;;;;;;5890419;24;20033;-88
2022/03/14 14:37:47;;;;;;;14.00;5.85;;;13.40;62.10;;;;;;5954542;23;20573;-88
2022/03/14 14:40:41;;;;;;;16.15;6.03;;;13.70;61.60;;;;;;5972717;23;20021;-87
2022/03/14 14:44:12;;;;;;;19.52;6.13;;;13.80;61.50;;;;;;5972892;24;20026;-88
2022/03/14 14:50:31;;;;;;;14.18;4.57;;;13.70;61.10;;;;;;5752010;25;20029;-87
2022/03/14 14:52:57;;;;;;;12.70;4.55;;;13.70;59.40;;;;;;5751056;24;20020;-87
2022/03/14 14:55:29;;;;;;;12.45;4.30;;;13.90;60.80;;;;;;5728684;25;20045;-88
2022/03/14 14:58:43;;;;;;;15.10;4.25;;;14.10;59.60;;;;;;5774602;24;20028;-88
2022/03/14 15:01:11;;;;;;;14.02;4.65;;;14.30;57.90;;;;;;5750881;24;20021;-88
2022/03/14 15:04:12;;;;;;;13.85;4.75;;;14.40;58.20;;;;;;5687320;25;20022;-88
2022/03/14 15:06:49;;;;;;;16.75;4.82;;;14.30;57.90;;;;;;5676927;25;20057;-89
2022/03/14 15:09:36;;;;;;;13.57;5.18;;;14.10;58.50;;;;;;5696750;25;20117;-88
2022/03/14 15:12:40;;;;;;;15.13;5.28;;;14.10;58.50;;;;;;5680106;25;20108;-88
2022/03/14 15:15:27;;;;;;;15.88;4.50;;;13.90;59.00;;;;;;5700442;25;20026;-88
2022/03/14 15:18:27;;;;;;;20.65;4.88;;;13.80;59.10;;;;;;5742332;24;20059;-89
2022/03/14 15:24:45;;;;;;;13.75;4.93;;;13.60;59.10;;;;;;5699235;24;20147;-88
2022/03/14 15:27:19;;;;;;;17.35;5.72;;;13.50;60.60;;;;;;5777987;24;20032;-88
2022/03/14 15:30:22;;;;;;;16.88;5.43;;;13.70;59.70;;;;;;5824954;24;20026;-88
2022/03/14 15:33:36;;;;;;;18.25;5.63;;;14.00;58.80;;;;;;5923796;24;20021;-88
2022/03/14 15:37:06;;;;;;;19.23;5.47;;;14.50;57.80;;;;;;5872992;24;20025;-88
2022/03/14 15:40:24;;;;;;;11.82;4.78;;;14.80;58.10;;;;;;5907132;24;20038;-88
2022/03/14 15:47:03;;;;;;;15.32;5.50;;;15.60;54.90;;;;;;5934557;24;20021;-88
2022/03/14 15:49:33;;;;;;;16.85;6.53;;;15.80;53.90;;;;;;5966885;23;20936;-88
2022/03/14 15:56:43;;;;;;;;;;;;;;;;;;;;;
2022/03/14 15:59:47;;;;;;;18.80;5.70;;;15.30;53.60;;;;;;5879510;24;20015;-88
2022/03/14 16:02:25;;;;;;;23.58;5.45;;;15.30;55.00;;;;;;5880295;24;20026;-88
2022/03/14 16:23:49;;;;;;;16.48;5.82;;;14.00;56.40;;;;;;5874732;24;21238;-88
2022/03/14 16:29:45;;;;;;;14.23;5.38;;;13.20;58.30;;;;;;5910899;24;20030;-89
2022/03/14 16:32:54;;;;;;;16.92;6.00;;;13.10;57.40;;;;;;5859059;24;20030;-89
2022/03/14 16:36:04;;;;;;;17.02;4.65;;;13.10;58.60;;;;;;5827517;24;20036;-89
2022/03/14 16:39:25;;;;;;;19.65;5.10;;;12.90;58.90;;;;;;5802518;24;20030;-89
2022/03/14 16:46:16;;;;;;;17.30;4.22;;;12.90;59.70;;;;;;5774887;24;20115;-89
2022/03/14 16:48:50;;;;;;;19.48;3.97;;;12.80;59.60;;;;;;5737093;24;20027;-89
2022/03/14 16:51:16;;;;;;;14.98;4.07;;;12.80;58.20;;;;;;5775637;24;20219;-89
2022/03/14 16:54:22;;;;;;;13.43;3.10;;;12.90;59.10;;;;;;5729514;24;20024;-88
2022/03/14 16:56:51;;;;;;;17.42;3.60;;;12.80;58.50;;;;;;5788834;24;20888;-88
2022/03/14 17:03:14;;;;;;;10.98;3.25;;;12.60;58.50;;;;;;5854032;24;20084;-88
2022/03/14 17:06:04;;;;;;;16.40;3.53;;;12.60;59.00;;;;;;5850445;24;20022;-88
2022/03/14 17:09:20;;;;;;;17.52;3.55;;;12.40;59.90;;;;;;5877742;24;20049;-89
2022/03/14 17:11:51;;;;;;;21.38;3.75;;;12.30;60.40;;;;;;5854858;24;20027;-89
2022/03/14 17:15:01;;;;;;;12.30;3.00;;;12.10;60.40;;;;;;5856034;24;20023;-89
2022/03/14 17:21:38;;;;;;;11.30;3.40;;;11.90;61.70;;;;;;5910492;24;20018;-88
2022/03/14 17:24:19;;;;;;;13.52;3.45;;;11.60;61.90;;;;;;5932276;24;20493;-88
2022/03/14 17:27:00;;;;;;;12.23;3.33;;;11.50;62.00;;;;;;5931705;24;20030;-88
2022/03/14 17:29:29;;;;;;;12.80;3.70;;;11.40;62.20;;;;;;5934077;24;20033;-87
2022/03/14 17:36:53;;;;;;;19.77;4.20;;;11.00;63.50;;;;;;5798890;24;20031;-90
2022/03/14 17:40:19;;;;;;;23.63;4.50;;;10.80;64.00;;;;;;5774069;24;20020;-88
2022/03/14 17:43:34;;;;;;;17.48;3.95;;;10.70;64.20;;;;;;5713436;25;20077;-87
2022/03/14 17:46:04;;;;;;;15.95;4.22;;;10.60;64.20;;;;;;5692926;25;20033;-88
2022/03/14 17:48:36;;;;;;;15.30;3.95;;;10.50;64.20;;;;;;5695243;25;21134;-88
2022/03/14 17:51:03;;;;;;;15.35;4.10;;;10.40;64.50;;;;;;5695175;25;20018;-87
2022/03/14 17:53:37;;;;;;;16.73;4.45;;;10.30;64.70;;;;;;5696752;25;20033;-88
